createdAt,value
2023-04-24T00:01:57.370Z,11.80
2023-04-24T00:04:00.534Z,11.80
2023-04-24T00:06:03.548Z,11.70
2023-04-24T00:08:05.538Z,11.60
2023-04-24T00:10:07.646Z,11.60
2023-04-24T00:12:09.653Z,11.60
2023-04-24T00:14:11.298Z,11.60
2023-04-24T00:16:13.059Z,11.50
2023-04-24T00:18:14.789Z,11.40
2023-04-24T00:20:16.688Z,11.40
2023-04-24T00:22:18.581Z,11.50
2023-04-24T00:24:20.256Z,11.60
2023-04-24T00:26:21.850Z,11.60
2023-04-24T00:28:23.547Z,11.60
2023-04-24T00:30:25.257Z,11.60
2023-04-24T00:32:27.028Z,11.60
2023-04-24T00:34:28.835Z,11.50
2023-04-24T00:36:31.836Z,11.50
2023-04-24T00:38:33.611Z,11.50
2023-04-24T00:40:35.615Z,11.50
2023-04-24T00:42:37.341Z,11.50
2023-04-24T00:44:39.445Z,11.50
2023-04-24T00:46:41.530Z,11.50
2023-04-24T00:48:43.879Z,11.60
2023-04-24T00:50:46.249Z,11.60
2023-04-24T00:52:48.194Z,11.50
2023-04-24T00:54:49.950Z,11.50
2023-04-24T00:56:52.334Z,11.60
2023-04-24T00:58:54.230Z,11.60
2023-04-24T01:00:58.570Z,11.60
2023-04-24T01:03:02.127Z,11.60
2023-04-24T01:05:04.579Z,11.70
2023-04-24T01:07:11.542Z,11.70
2023-04-24T01:09:13.649Z,11.70
2023-04-24T01:11:15.593Z,11.70
2023-04-24T01:13:17.269Z,11.70
2023-04-24T01:15:18.897Z,11.70
2023-04-24T01:17:21.457Z,11.70
2023-04-24T01:19:23.128Z,11.80
2023-04-24T01:21:26.097Z,11.80
2023-04-24T01:23:30.655Z,11.80
2023-04-24T01:25:32.695Z,11.70
2023-04-24T01:27:34.501Z,11.80
2023-04-24T01:29:36.272Z,11.70
2023-04-24T01:31:37.970Z,11.70
2023-04-24T01:33:39.719Z,11.80
2023-04-24T01:35:41.399Z,11.80
2023-04-24T01:37:43.076Z,11.80
2023-04-24T01:39:45.123Z,11.90
2023-04-24T01:41:47.242Z,11.80
2023-04-24T01:43:49.178Z,11.70
2023-04-24T01:45:50.828Z,11.60
2023-04-24T01:47:52.853Z,11.50
2023-04-24T01:49:54.641Z,11.50
2023-04-24T01:51:56.285Z,11.40
2023-04-24T01:53:58.134Z,11.30
2023-04-24T01:55:59.825Z,11.30
2023-04-24T01:58:03.116Z,11.30
2023-04-24T02:00:05.684Z,11.30
2023-04-24T02:02:07.492Z,11.30
2023-04-24T02:04:10.044Z,11.40
2023-04-24T02:06:11.810Z,11.40
2023-04-24T02:08:13.447Z,11.40
2023-04-24T02:10:15.109Z,11.50
2023-04-24T02:12:18.486Z,11.60
2023-04-24T02:14:20.127Z,11.60
2023-04-24T02:16:21.835Z,11.50
2023-04-24T02:18:23.689Z,11.50
2023-04-24T02:20:25.522Z,11.60
2023-04-24T02:22:27.225Z,11.50
2023-04-24T02:24:28.815Z,11.60
2023-04-24T02:26:32.667Z,11.50
2023-04-24T02:28:34.305Z,11.50
2023-04-24T02:30:36.390Z,11.50
2023-04-24T02:32:37.964Z,11.40
2023-04-24T02:34:39.640Z,11.40
2023-04-24T02:36:41.275Z,11.40
2023-04-24T02:38:42.978Z,11.40
2023-04-24T02:40:44.600Z,11.30
2023-04-24T02:42:46.222Z,11.40
2023-04-24T02:44:47.859Z,11.40
2023-04-24T02:46:49.455Z,11.40
2023-04-24T02:48:51.255Z,11.40
2023-04-24T02:50:52.910Z,11.50
2023-04-24T02:52:54.610Z,11.50
2023-04-24T02:54:56.218Z,11.50
2023-04-24T02:56:57.805Z,11.50
2023-04-24T02:58:59.412Z,11.60
2023-04-24T03:01:01.602Z,11.60
2023-04-24T03:03:03.991Z,11.70
2023-04-24T03:05:06.010Z,11.70
2023-04-24T03:07:07.863Z,11.70
2023-04-24T03:09:09.446Z,11.70
2023-04-24T03:11:11.063Z,11.80
2023-04-24T03:13:12.658Z,11.70
2023-04-24T03:15:14.296Z,11.80
2023-04-24T03:17:15.987Z,11.70
2023-04-24T03:19:17.562Z,11.70
2023-04-24T03:21:19.338Z,11.70
2023-04-24T03:23:21.034Z,11.70
2023-04-24T03:25:22.782Z,11.80
2023-04-24T03:27:24.646Z,11.70
2023-04-24T03:29:26.283Z,11.60
2023-04-24T03:31:27.935Z,11.60
2023-04-24T03:33:30.345Z,11.60
2023-04-24T03:35:32.046Z,11.60
2023-04-24T03:37:33.730Z,11.60
2023-04-24T03:39:35.484Z,11.60
2023-04-24T03:41:37.104Z,11.50
2023-04-24T03:43:38.913Z,11.50
2023-04-24T03:45:40.705Z,11.50
2023-04-24T03:47:42.526Z,11.40
2023-04-24T03:49:44.407Z,11.30
2023-04-24T03:51:46.361Z,11.40
2023-04-24T03:53:48.112Z,11.40
2023-04-24T03:55:49.737Z,11.40
2023-04-24T03:57:51.452Z,11.40
2023-04-24T03:59:54.531Z,11.40
2023-04-24T04:01:56.366Z,11.30
2023-04-24T04:03:58.148Z,11.30
2023-04-24T04:05:59.816Z,11.20
2023-04-24T04:08:01.673Z,11.20
2023-04-24T04:10:03.597Z,11.10
2023-04-24T04:12:05.500Z,11.10
2023-04-24T04:14:07.241Z,11.10
2023-04-24T04:16:09.713Z,11.00
2023-04-24T04:18:11.545Z,11.10
2023-04-24T04:20:13.501Z,11.20
2023-04-24T04:22:15.226Z,11.10
2023-04-24T04:24:16.799Z,11.10
2023-04-24T04:26:20.081Z,11.10
2023-04-24T04:28:22.229Z,11.20
2023-04-24T04:30:24.433Z,11.40
2023-04-24T04:32:27.158Z,11.30
2023-04-24T04:34:28.898Z,11.40
2023-04-24T04:36:30.559Z,11.40
2023-04-24T04:38:32.260Z,11.40
2023-04-24T04:40:34.009Z,11.50
2023-04-24T04:42:35.629Z,11.50
2023-04-24T04:44:37.465Z,11.40
2023-04-24T04:46:39.482Z,11.30
2023-04-24T04:48:41.412Z,11.20
2023-04-24T04:50:43.075Z,11.00
2023-04-24T04:52:44.698Z,10.80
2023-04-24T04:54:47.230Z,10.80
2023-04-24T04:56:50.814Z,10.70
2023-04-24T04:58:52.480Z,10.50
2023-04-24T05:00:54.158Z,10.40
2023-04-24T05:03:01.053Z,10.30
2023-04-24T05:05:11.448Z,10.20
2023-04-24T05:07:13.125Z,10.20
2023-04-24T05:09:14.712Z,10.20
2023-04-24T05:11:16.646Z,10.30
2023-04-24T05:13:22.776Z,10.30
2023-04-24T05:15:27.277Z,10.20
2023-04-24T05:17:29.161Z,10.20
2023-04-24T05:19:30.959Z,10.30
2023-04-24T05:21:33.198Z,10.30
2023-04-24T05:23:34.885Z,10.30
2023-04-24T05:25:36.754Z,10.30
2023-04-24T05:27:38.525Z,10.30
2023-04-24T05:29:41.085Z,10.30
2023-04-24T05:31:42.965Z,10.30
2023-04-24T05:33:44.635Z,10.30
2023-04-24T05:35:47.759Z,10.30
2023-04-24T05:37:49.629Z,10.40
2023-04-24T05:39:51.339Z,10.30
2023-04-24T05:41:53.041Z,10.40
2023-04-24T05:43:54.871Z,10.30
2023-04-24T05:45:56.761Z,10.40
2023-04-24T05:47:58.411Z,10.40
2023-04-24T05:50:00.214Z,10.50
2023-04-24T05:52:01.803Z,10.50
2023-04-24T05:54:04.181Z,10.60
2023-04-24T05:56:06.008Z,10.60
2023-04-24T05:58:07.676Z,10.70
2023-04-24T06:00:09.654Z,10.70
2023-04-24T06:02:11.417Z,10.70
2023-04-24T06:04:14.812Z,10.70
2023-04-24T06:06:17.042Z,10.60
2023-04-24T06:08:18.773Z,10.60
2023-04-24T06:10:20.490Z,10.60
2023-04-24T06:12:22.142Z,10.60
2023-04-24T06:14:23.798Z,10.60
2023-04-24T06:16:25.539Z,10.70
2023-04-24T06:18:27.251Z,10.70
2023-04-24T06:20:29.085Z,10.60
2023-04-24T06:22:30.858Z,10.60
2023-04-24T06:24:32.590Z,10.70
2023-04-24T06:26:34.281Z,10.70
2023-04-24T06:28:36.024Z,10.50
2023-04-24T06:30:37.739Z,10.60
2023-04-24T06:32:39.494Z,10.70
2023-04-24T06:34:41.176Z,10.60
2023-04-24T06:36:42.898Z,10.60
2023-04-24T06:38:44.498Z,10.50
2023-04-24T06:40:46.184Z,10.60
2023-04-24T06:42:47.825Z,10.70
2023-04-24T06:44:49.514Z,10.80
2023-04-24T06:46:51.221Z,10.80
2023-04-24T06:48:56.522Z,10.90
2023-04-24T06:50:58.144Z,10.90
2023-04-24T06:52:59.795Z,11.00
2023-04-24T06:55:03.216Z,11.00
2023-04-24T06:57:04.835Z,11.10
2023-04-24T06:59:06.485Z,11.20
2023-04-24T07:01:08.193Z,11.40
2023-04-24T07:03:10.119Z,11.40
2023-04-24T07:05:12.067Z,11.50
2023-04-24T07:07:15.121Z,11.60
2023-04-24T07:09:18.375Z,11.60
2023-04-24T07:11:20.090Z,11.70
2023-04-24T07:13:21.809Z,11.80
2023-04-24T07:15:24.458Z,11.80
2023-04-24T07:17:26.741Z,11.90
2023-04-24T07:19:28.648Z,12.00
2023-04-24T07:21:32.222Z,12.00
2023-04-24T07:23:33.839Z,12.00
2023-04-24T07:25:35.663Z,12.10
2023-04-24T07:27:37.674Z,12.30
2023-04-24T07:29:39.325Z,12.30
2023-04-24T07:31:42.350Z,12.20
2023-04-24T07:33:44.144Z,12.10
2023-04-24T07:35:45.817Z,12.00
2023-04-24T07:37:47.498Z,12.10
2023-04-24T07:39:49.177Z,12.20
2023-04-24T07:41:50.834Z,12.10
2023-04-24T07:43:53.507Z,12.00
2023-04-24T07:45:55.233Z,11.80
2023-04-24T07:47:57.427Z,11.70
2023-04-24T07:49:59.639Z,11.80
2023-04-24T07:52:02.928Z,11.80
2023-04-24T07:54:07.270Z,11.70
2023-04-24T07:56:08.917Z,11.80
2023-04-24T07:58:10.596Z,11.90
2023-04-24T08:00:12.578Z,12.00
2023-04-24T08:02:14.412Z,12.10
2023-04-24T08:04:16.324Z,12.20
2023-04-24T08:06:18.545Z,12.30
2023-04-24T08:08:22.736Z,12.40
2023-04-24T08:10:24.776Z,12.70
2023-04-24T08:12:26.604Z,12.80
2023-04-24T08:14:28.211Z,12.70
2023-04-24T08:16:29.942Z,12.70
2023-04-24T08:18:31.838Z,12.90
2023-04-24T08:20:33.486Z,12.80
2023-04-24T08:22:35.131Z,12.90
2023-04-24T08:24:37.522Z,12.80
2023-04-24T08:26:39.260Z,12.80
2023-04-24T08:28:41.040Z,12.80
2023-04-24T08:30:42.780Z,12.80
2023-04-24T08:32:44.521Z,12.70
2023-04-24T08:34:48.358Z,12.80
2023-04-24T08:36:51.740Z,12.90
2023-04-24T08:38:53.650Z,12.90
2023-04-24T08:40:55.656Z,12.80
2023-04-24T08:42:58.153Z,12.80
2023-04-24T08:44:59.914Z,12.70
2023-04-24T08:47:03.102Z,12.50
2023-04-24T08:49:04.824Z,12.50
2023-04-24T08:51:09.685Z,12.60
2023-04-24T08:53:11.900Z,12.70
2023-04-24T08:55:13.618Z,12.70
2023-04-24T08:57:15.608Z,12.90
2023-04-24T08:59:17.330Z,13.00
2023-04-24T09:01:21.244Z,13.00
2023-04-24T09:03:23.400Z,13.10
2023-04-24T09:05:27.077Z,13.00
2023-04-24T09:07:31.289Z,13.10
2023-04-24T09:09:33.854Z,13.00
2023-04-24T09:11:35.593Z,12.80
2023-04-24T09:13:37.626Z,12.80
2023-04-24T09:15:39.808Z,12.70
2023-04-24T09:17:41.627Z,12.90
2023-04-24T09:19:43.687Z,12.90
2023-04-24T09:21:48.358Z,12.80
2023-04-24T09:24:00.622Z,12.80
2023-04-24T09:26:03.299Z,13.00
2023-04-24T09:28:05.410Z,13.00
2023-04-24T09:30:08.437Z,12.70
2023-04-24T09:32:20.751Z,12.90
2023-04-24T09:34:23.891Z,12.70
2023-04-24T09:36:35.155Z,12.70
2023-04-24T09:38:37.882Z,12.70
2023-04-24T09:40:41.720Z,12.50
2023-04-24T09:42:47.570Z,12.50
2023-04-24T09:44:58.852Z,12.50
2023-04-24T09:47:09.830Z,12.40
2023-04-24T09:49:16.348Z,12.40
2023-04-24T09:51:18.038Z,12.60
2023-04-24T09:53:24.733Z,13.10
2023-04-24T09:55:26.503Z,12.90
2023-04-24T09:57:28.089Z,13.00
2023-04-24T09:59:30.397Z,13.00
2023-04-24T10:01:33.157Z,13.40
2023-04-24T10:03:36.634Z,13.50
2023-04-24T10:05:39.672Z,13.80
2023-04-24T10:07:41.378Z,13.80
2023-04-24T10:09:43.609Z,13.90
2023-04-24T10:11:46.445Z,13.90
2023-04-24T10:13:48.125Z,13.90
2023-04-24T10:15:50.213Z,13.90
2023-04-24T10:17:54.785Z,13.50
2023-04-24T10:19:56.709Z,13.30
2023-04-24T10:21:59.018Z,13.20
2023-04-24T10:24:04.526Z,13.00
2023-04-24T10:26:06.598Z,13.40
2023-04-24T10:28:10.467Z,13.70
2023-04-24T10:30:13.783Z,13.90
2023-04-24T10:32:15.631Z,14.40
2023-04-24T10:34:18.838Z,14.40
2023-04-24T10:36:23.568Z,14.50
2023-04-24T10:38:29.539Z,14.40
2023-04-24T10:40:32.333Z,14.80
2023-04-24T10:42:34.098Z,14.70
2023-04-24T10:44:38.907Z,15.30
2023-04-24T10:46:43.444Z,15.80
2023-04-24T10:48:52.898Z,15.60
2023-04-24T10:50:54.683Z,16.20
2023-04-24T10:53:05.883Z,15.70
2023-04-24T10:55:07.994Z,15.70
2023-04-24T10:57:19.117Z,14.60
2023-04-24T10:59:24.968Z,14.40
2023-04-24T11:01:31.040Z,14.10
2023-04-24T11:03:34.006Z,13.70
2023-04-24T11:05:54.713Z,13.60
2023-04-24T11:08:17.115Z,13.50
2023-04-24T11:10:28.087Z,13.40
2023-04-24T11:12:29.839Z,13.10
2023-04-24T11:14:31.495Z,13.00
2023-04-24T11:16:36.318Z,12.90
2023-04-24T11:18:38.926Z,12.90
2023-04-24T11:20:44.216Z,12.70
2023-04-24T11:22:45.954Z,12.70
2023-04-24T11:24:47.594Z,12.60
2023-04-24T11:26:49.245Z,12.50
2023-04-24T11:28:51.540Z,12.50
2023-04-24T11:30:53.682Z,12.40
2023-04-24T11:32:55.358Z,12.40
2023-04-24T11:35:04.909Z,12.40
2023-04-24T11:37:06.606Z,12.50
2023-04-24T11:39:08.352Z,12.60
2023-04-24T11:41:10.888Z,12.80
2023-04-24T11:43:13.179Z,12.90
2023-04-24T11:45:19.386Z,12.90
2023-04-24T11:47:21.756Z,13.20
2023-04-24T11:49:23.687Z,13.50
2023-04-24T11:51:33.777Z,13.40
2023-04-24T11:53:42.200Z,13.50
2023-04-24T11:55:45.299Z,13.40
2023-04-24T11:57:50.751Z,13.10
2023-04-24T11:59:52.559Z,12.90
2023-04-24T12:01:54.196Z,12.70
2023-04-24T12:04:01.011Z,12.70
2023-04-24T12:06:09.430Z,12.50
2023-04-24T12:08:11.253Z,12.50
2023-04-24T12:10:12.869Z,12.50
2023-04-24T12:12:15.105Z,12.80
2023-04-24T12:14:16.784Z,12.80
2023-04-24T12:16:18.381Z,12.90
2023-04-24T12:18:22.961Z,13.00
2023-04-24T12:20:34.011Z,13.20
2023-04-24T12:22:49.823Z,13.30
2023-04-24T12:25:04.953Z,13.40
2023-04-24T12:27:06.616Z,13.40
2023-04-24T12:29:08.938Z,13.20
2023-04-24T12:31:11.103Z,13.00
2023-04-24T12:33:13.009Z,12.90
2023-04-24T12:35:16.004Z,12.70
2023-04-24T12:37:17.638Z,12.60
2023-04-24T12:39:20.479Z,12.50
2023-04-24T12:41:22.392Z,12.70
2023-04-24T12:43:24.081Z,12.60
2023-04-24T12:45:26.288Z,12.70
2023-04-24T12:47:28.571Z,12.80
2023-04-24T12:49:31.387Z,13.00
2023-04-24T12:51:33.055Z,12.90
2023-04-24T12:53:34.912Z,13.10
2023-04-24T12:55:36.880Z,13.30
2023-04-24T12:57:39.858Z,13.50
2023-04-24T12:59:42.244Z,13.50
2023-04-24T13:01:43.988Z,13.20
2023-04-24T13:03:46.206Z,13.00
2023-04-24T13:05:48.140Z,12.90
2023-04-24T13:07:49.767Z,12.70
2023-04-24T13:09:52.057Z,12.70
2023-04-24T13:11:53.784Z,12.50
2023-04-24T13:13:55.643Z,12.40
2023-04-24T13:15:57.290Z,12.30
2023-04-24T13:17:59.025Z,12.20
2023-04-24T13:20:00.798Z,12.20
2023-04-24T13:22:02.791Z,12.20
2023-04-24T13:24:05.997Z,12.20
2023-04-24T13:26:13.328Z,12.30
2023-04-24T13:28:15.230Z,12.20
2023-04-24T13:30:17.207Z,12.10
2023-04-24T13:32:19.181Z,12.20
2023-04-24T13:34:20.919Z,12.80
2023-04-24T13:36:22.753Z,12.40
2023-04-24T13:38:24.481Z,13.00
2023-04-24T13:40:26.194Z,13.10
2023-04-24T13:42:28.383Z,13.30
2023-04-24T13:44:30.079Z,13.40
2023-04-24T13:46:32.083Z,13.30
2023-04-24T13:48:33.765Z,13.20
2023-04-24T13:50:35.438Z,13.00
2023-04-24T13:52:37.091Z,12.60
2023-04-24T13:54:38.747Z,12.70
2023-04-24T13:56:43.586Z,12.60
2023-04-24T13:58:45.359Z,12.40
2023-04-24T14:00:47.118Z,12.40
2023-04-24T14:02:48.972Z,12.30
2023-04-24T14:04:51.009Z,12.30
2023-04-24T14:06:52.781Z,12.20
2023-04-24T14:08:54.483Z,12.20
2023-04-24T14:10:56.176Z,12.10
2023-04-24T14:12:58.563Z,12.00
2023-04-24T14:15:00.483Z,11.80
2023-04-24T14:17:02.156Z,11.80
2023-04-24T14:19:03.781Z,12.10
2023-04-24T14:21:05.619Z,12.40
2023-04-24T14:23:07.253Z,12.60
2023-04-24T14:25:09.277Z,13.30
2023-04-24T14:27:10.935Z,13.80
2023-04-24T14:29:15.077Z,14.00
2023-04-24T14:31:17.138Z,13.70
2023-04-24T14:33:19.150Z,13.40
2023-04-24T14:35:20.754Z,13.10
2023-04-24T14:37:22.424Z,12.70
2023-04-24T14:39:24.150Z,12.40
2023-04-24T14:41:26.219Z,12.40
2023-04-24T14:43:27.918Z,12.20
2023-04-24T14:45:29.617Z,12.10
2023-04-24T14:47:31.520Z,12.00
2023-04-24T14:49:33.382Z,12.10
2023-04-24T14:51:35.158Z,12.40
2023-04-24T14:53:36.816Z,12.40
2023-04-24T14:55:39.136Z,12.70
2023-04-24T14:57:41.072Z,13.20
2023-04-24T14:59:42.728Z,14.90
2023-04-24T15:01:44.366Z,15.40
2023-04-24T15:03:47.161Z,16.80
2023-04-24T15:05:49.360Z,15.40
2023-04-24T15:07:51.488Z,14.00
2023-04-24T15:09:53.173Z,13.90
2023-04-24T15:11:55.004Z,13.80
2023-04-24T15:13:57.259Z,13.60
2023-04-24T15:15:58.837Z,15.80
2023-04-24T15:18:00.679Z,18.20
2023-04-24T15:20:02.404Z,20.60
2023-04-24T15:22:04.108Z,18.90
2023-04-24T15:24:05.915Z,16.70
2023-04-24T15:26:07.590Z,15.30
2023-04-24T15:28:10.373Z,13.80
2023-04-24T15:30:12.530Z,13.40
2023-04-24T15:32:14.213Z,13.40
2023-04-24T15:34:15.888Z,13.40
2023-04-24T15:36:17.880Z,12.80
2023-04-24T15:38:19.683Z,12.80
2023-04-24T15:40:21.470Z,12.90
2023-04-24T15:42:23.503Z,12.80
2023-04-24T15:44:25.184Z,12.80
2023-04-24T15:46:26.948Z,12.70
2023-04-24T15:48:29.396Z,12.50
2023-04-24T15:50:31.191Z,12.40
2023-04-24T15:52:32.936Z,12.50
2023-04-24T15:54:34.622Z,12.50
2023-04-24T15:56:37.014Z,12.50
2023-04-24T15:58:38.904Z,12.40
2023-04-24T16:00:40.813Z,12.70
2023-04-24T16:02:42.708Z,12.70
2023-04-24T16:04:46.057Z,13.90
2023-04-24T16:06:47.747Z,16.60
2023-04-24T16:08:49.784Z,19.40
2023-04-24T16:10:52.640Z,16.70
2023-04-24T16:12:57.421Z,14.80
2023-04-24T16:14:59.232Z,14.20
2023-04-24T16:17:03.127Z,15.30
2023-04-24T16:19:04.888Z,18.40
2023-04-24T16:21:09.097Z,21.30
2023-04-24T16:23:10.989Z,22.60
2023-04-24T16:25:12.802Z,22.40
2023-04-24T16:27:15.172Z,18.50
2023-04-24T16:29:17.136Z,17.40
2023-04-24T16:31:18.902Z,15.70
2023-04-24T16:33:20.629Z,15.20
2023-04-24T16:35:22.384Z,14.70
2023-04-24T16:37:24.064Z,14.00
2023-04-24T16:39:26.972Z,14.00
2023-04-24T16:41:28.736Z,13.90
2023-04-24T16:43:30.794Z,13.90
2023-04-24T16:45:32.553Z,13.70
2023-04-24T16:47:34.209Z,13.50
2023-04-24T16:49:35.983Z,13.30
2023-04-24T16:51:37.618Z,13.10
2023-04-24T16:53:39.341Z,12.90
2023-04-24T16:55:40.955Z,12.80
2023-04-24T16:57:42.659Z,12.80
2023-04-24T16:59:44.372Z,12.80
2023-04-24T17:01:46.441Z,13.30
2023-04-24T17:03:48.361Z,13.50
2023-04-24T17:05:51.817Z,13.40
2023-04-24T17:07:53.491Z,13.10
2023-04-24T17:09:55.934Z,13.20
2023-04-24T17:11:57.662Z,13.20
2023-04-24T17:13:59.981Z,13.00
2023-04-24T17:16:02.037Z,12.90
2023-04-24T17:18:05.671Z,13.10
2023-04-24T17:20:18.612Z,12.90
2023-04-24T17:22:24.216Z,13.10
2023-04-24T17:24:26.152Z,13.20
2023-04-24T17:26:28.552Z,13.10
2023-04-24T17:28:31.188Z,13.00
2023-04-24T17:30:32.828Z,12.90
2023-04-24T17:32:34.585Z,13.00
2023-04-24T17:34:38.835Z,12.90
2023-04-24T17:36:40.742Z,12.90
2023-04-24T17:38:42.447Z,12.80
2023-04-24T17:40:45.850Z,12.70
2023-04-24T17:42:47.526Z,12.70
2023-04-24T17:44:49.236Z,12.60
2023-04-24T17:46:51.286Z,12.50
2023-04-24T17:48:53.246Z,12.40
2023-04-24T17:50:55.205Z,12.40
2023-04-24T17:52:56.856Z,12.30
2023-04-24T17:54:58.566Z,12.30
2023-04-24T17:57:00.241Z,12.20
2023-04-24T17:59:01.945Z,12.10
2023-04-24T18:01:03.577Z,12.10
2023-04-24T18:03:06.678Z,12.10
2023-04-24T18:05:08.570Z,12.10
2023-04-24T18:07:10.237Z,12.00
2023-04-24T18:09:12.225Z,12.00
2023-04-24T18:11:14.077Z,12.00
2023-04-24T18:13:15.758Z,12.00
2023-04-24T18:15:17.787Z,12.10
2023-04-24T18:17:21.129Z,12.10
2023-04-24T18:19:22.790Z,12.10
2023-04-24T18:21:25.120Z,12.10
2023-04-24T18:23:26.837Z,12.10
2023-04-24T18:25:28.692Z,12.00
2023-04-24T18:27:31.243Z,12.00
2023-04-24T18:29:32.897Z,12.00
2023-04-24T18:31:34.705Z,11.90
2023-04-24T18:33:36.566Z,11.80
2023-04-24T18:35:38.224Z,11.80
2023-04-24T18:37:43.554Z,11.80
2023-04-24T18:39:45.218Z,11.70
2023-04-24T18:41:47.026Z,11.70
2023-04-24T18:43:48.880Z,11.70
2023-04-24T18:45:50.574Z,11.60
2023-04-24T18:47:52.524Z,11.50
2023-04-24T18:49:55.030Z,11.60
2023-04-24T18:51:56.705Z,11.60
2023-04-24T18:53:58.427Z,11.60
2023-04-24T18:56:00.052Z,11.50
2023-04-24T18:58:01.989Z,11.50
2023-04-24T19:00:04.308Z,11.30
2023-04-24T19:02:06.209Z,11.30
2023-04-24T19:04:08.126Z,11.20
2023-04-24T19:06:09.886Z,11.10
2023-04-24T19:08:11.710Z,11.10
2023-04-24T19:10:13.730Z,11.10
2023-04-24T19:12:15.396Z,11.10
2023-04-24T19:14:17.292Z,11.10
2023-04-24T19:16:19.102Z,11.10
2023-04-24T19:18:20.928Z,11.10
2023-04-24T19:20:23.141Z,11.20
2023-04-24T19:22:24.795Z,11.20
2023-04-24T19:24:28.891Z,11.20
2023-04-24T19:26:31.463Z,11.10
2023-04-24T19:28:33.308Z,11.00
2023-04-24T19:30:35.464Z,10.90
2023-04-24T19:32:37.287Z,10.90
2023-04-24T19:34:40.587Z,10.90
2023-04-24T19:36:43.052Z,10.80
2023-04-24T19:38:45.294Z,10.80
2023-04-24T19:40:47.100Z,10.80
2023-04-24T19:42:49.536Z,10.80
2023-04-24T19:44:51.430Z,10.80
2023-04-24T19:46:53.209Z,10.80
2023-04-24T19:48:54.980Z,10.70
2023-04-24T19:50:57.391Z,10.70
2023-04-24T19:52:59.423Z,10.50
2023-04-24T19:55:01.211Z,10.50
2023-04-24T19:57:03.927Z,10.40
2023-04-24T19:59:05.742Z,10.30
2023-04-24T20:01:07.503Z,10.30
2023-04-24T20:03:15.805Z,10.30
2023-04-24T20:05:23.584Z,10.30
2023-04-24T20:07:26.058Z,10.30
2023-04-24T20:09:27.767Z,10.30
2023-04-24T20:11:29.540Z,10.20
2023-04-24T20:13:32.596Z,10.20
2023-04-24T20:15:34.347Z,10.10
2023-04-24T20:17:35.975Z,10.00
2023-04-24T20:19:38.051Z,10.20
2023-04-24T20:21:40.038Z,10.20
2023-04-24T20:23:41.791Z,10.20
2023-04-24T20:25:43.414Z,10.10
2023-04-24T20:27:45.177Z,10.00
2023-04-24T20:29:48.008Z,9.80
2023-04-24T20:31:49.823Z,9.80
2023-04-24T20:33:51.562Z,9.80
2023-04-24T20:35:53.145Z,9.90
2023-04-24T20:37:54.830Z,9.80
2023-04-24T20:39:57.078Z,9.90
2023-04-24T20:41:58.775Z,10.00
2023-04-24T20:44:00.874Z,10.00
2023-04-24T20:46:06.092Z,10.00
2023-04-24T20:48:11.416Z,10.00
2023-04-24T20:50:16.382Z,10.10
2023-04-24T20:52:19.640Z,10.00
2023-04-24T20:56:56.153Z,9.90
2023-04-24T20:59:06.382Z,9.90
2023-04-24T21:01:22.753Z,9.90
2023-04-24T21:03:54.209Z,9.80
2023-04-24T21:06:06.666Z,9.70
2023-04-24T21:08:17.321Z,9.50
2023-04-24T21:10:28.649Z,9.40
2023-04-24T21:12:40.165Z,9.30
2023-04-24T21:14:45.578Z,9.30
2023-04-24T21:17:04.896Z,9.20
2023-04-24T21:19:06.973Z,9.10
2023-04-24T21:21:27.745Z,9.10
2023-04-24T21:23:32.730Z,9.10
2023-04-24T21:25:42.360Z,9.00
2023-04-24T21:27:55.736Z,9.00
2023-04-24T21:30:35.036Z,9.00
2023-04-24T21:32:42.431Z,8.90
2023-04-24T21:34:52.659Z,8.80
2023-04-24T21:37:03.096Z,8.80
2023-04-24T21:39:10.754Z,8.70
2023-04-24T21:41:15.849Z,8.70
2023-04-24T21:43:27.679Z,8.70
2023-04-24T21:45:46.555Z,8.70
2023-04-24T21:47:55.213Z,8.70
2023-04-24T21:50:18.175Z,8.70
2023-04-24T21:52:33.866Z,8.70
2023-04-24T21:54:38.850Z,8.70
2023-04-24T21:56:53.619Z,8.80
2023-04-24T21:59:06.221Z,8.80
2023-04-24T22:01:27.417Z,8.90
2023-04-24T22:03:32.787Z,8.90
2023-04-24T22:05:35.378Z,9.00
2023-04-24T22:07:40.124Z,9.00
2023-04-24T22:10:05.936Z,9.10
2023-04-24T22:12:10.773Z,9.10
2023-04-24T22:14:20.239Z,9.20
2023-04-24T22:16:35.763Z,9.20
2023-04-24T22:18:47.561Z,9.20
2023-04-24T22:21:04.433Z,9.20
2023-04-24T22:23:06.209Z,9.20
2023-04-24T22:25:08.101Z,9.20
2023-04-24T22:27:09.801Z,9.20
2023-04-24T22:29:11.657Z,9.30
2023-04-24T22:31:13.354Z,9.30
2023-04-24T22:33:15.405Z,9.20
2023-04-24T22:35:17.676Z,9.20
2023-04-24T22:37:19.260Z,9.20
2023-04-24T22:39:21.691Z,9.10
2023-04-24T22:41:23.386Z,9.10
2023-04-24T22:43:27.406Z,9.20
2023-04-24T22:45:29.361Z,9.10
2023-04-24T22:47:31.504Z,9.10
2023-04-24T22:49:34.074Z,9.20
2023-04-24T22:51:36.215Z,9.20
2023-04-24T22:53:38.063Z,9.20
2023-04-24T22:55:40.928Z,9.30
2023-04-24T22:57:42.891Z,9.30
2023-04-24T22:59:46.848Z,9.20
2023-04-24T23:01:49.164Z,9.10
2023-04-24T23:03:52.614Z,9.20
2023-04-24T23:05:55.036Z,9.20
2023-04-24T23:07:58.558Z,9.20
2023-04-24T23:10:01.055Z,9.20
2023-04-24T23:12:03.361Z,9.10
2023-04-24T23:14:06.203Z,9.20
2023-04-24T23:16:08.180Z,9.10
2023-04-24T23:18:10.173Z,9.10
2023-04-24T23:20:15.517Z,9.10
2023-04-24T23:22:17.532Z,9.10
2023-04-24T23:24:19.401Z,9.10
2023-04-24T23:26:21.562Z,9.20
2023-04-24T23:28:24.030Z,9.10
2023-04-24T23:30:26.749Z,9.00
2023-04-24T23:32:29.562Z,9.00
2023-04-24T23:34:34.098Z,9.00
2023-04-24T23:36:36.778Z,9.10
2023-04-24T23:38:49.101Z,9.00
2023-04-24T23:40:52.279Z,9.00
2023-04-24T23:43:06.204Z,9.00
2023-04-24T23:45:10.891Z,9.20
2023-04-24T23:47:12.824Z,9.20
2023-04-24T23:49:14.862Z,9.20
2023-04-24T23:51:16.626Z,9.20
2023-04-24T23:53:18.654Z,9.20
2023-04-24T23:55:20.327Z,9.20
2023-04-24T23:57:22.494Z,9.20
2023-04-24T23:59:24.275Z,9.20
